createdAt,value
2023-05-13T00:02:07.709Z,101650.94
2023-05-13T00:05:09.323Z,101656.41
2023-05-13T00:08:11.164Z,101660.13
2023-05-13T00:11:12.746Z,101656.75
2023-05-13T00:14:14.677Z,101649.34
2023-05-13T00:17:16.204Z,101651.22
2023-05-13T00:20:17.711Z,101653.69
2023-05-13T00:23:19.050Z,101655.34
2023-05-13T00:26:21.088Z,101657.16
2023-05-13T00:29:23.020Z,101656.63
2023-05-13T00:32:24.334Z,101663.91
2023-05-13T00:35:25.847Z,101664.34
2023-05-13T00:38:27.207Z,101666.16
2023-05-13T00:41:28.604Z,101662.81
2023-05-13T00:44:30.677Z,101661.16
2023-05-13T00:47:33.053Z,101665.84
2023-05-13T00:50:34.392Z,101673.72
2023-05-13T00:53:37.022Z,101667.44
2023-05-13T00:56:38.630Z,101665.59
2023-05-13T00:59:40.743Z,101671.16
2023-05-13T01:02:50.393Z,101673.56
2023-05-13T01:06:00.024Z,101674.81
2023-05-13T01:09:07.520Z,101681.44
2023-05-13T01:12:12.792Z,101675.66
2023-05-13T01:15:20.717Z,101683.38
2023-05-13T01:18:28.233Z,101680.50
2023-05-13T01:21:35.181Z,101683.69
2023-05-13T01:24:36.613Z,101684.00
2023-05-13T01:27:38.207Z,101689.56
2023-05-13T01:30:39.787Z,101692.66
2023-05-13T01:33:42.586Z,101701.41
2023-05-13T01:36:44.662Z,101695.31
2023-05-13T01:39:47.169Z,101698.69
2023-05-13T01:42:48.626Z,101701.66
2023-05-13T01:45:49.947Z,101699.16
2023-05-13T01:48:51.480Z,101703.16
2023-05-13T01:51:53.506Z,101703.13
2023-05-13T01:54:54.939Z,101706.22
2023-05-13T01:57:56.228Z,101709.50
2023-05-13T02:00:57.767Z,101699.25
2023-05-13T02:03:59.378Z,101701.78
2023-05-13T02:07:01.550Z,101703.34
2023-05-13T02:10:03.259Z,101709.34
2023-05-13T02:13:04.575Z,101704.03
2023-05-13T02:16:06.276Z,101705.41
2023-05-13T02:19:07.880Z,101707.44
2023-05-13T02:22:09.955Z,101710.94
2023-05-13T02:25:11.406Z,101709.50
2023-05-13T02:28:12.674Z,101709.88
2023-05-13T02:31:14.125Z,101708.22
2023-05-13T02:34:15.543Z,101710.91
2023-05-13T02:37:17.529Z,101715.19
2023-05-13T02:40:19.290Z,101708.94
2023-05-13T02:43:20.929Z,101711.97
2023-05-13T02:46:22.446Z,101705.47
2023-05-13T02:49:23.890Z,101710.50
2023-05-13T02:52:25.888Z,101709.59
2023-05-13T02:55:27.392Z,101711.88
2023-05-13T02:58:28.712Z,101715.69
2023-05-13T03:01:30.087Z,101711.88
2023-05-13T03:04:31.455Z,101722.69
2023-05-13T03:07:34.068Z,101718.00
2023-05-13T03:10:35.502Z,101717.94
2023-05-13T03:13:36.796Z,101719.03
2023-05-13T03:16:38.304Z,101718.72
2023-05-13T03:19:39.822Z,101725.19
2023-05-13T03:22:42.114Z,101721.75
2023-05-13T03:25:43.542Z,101720.53
2023-05-13T03:28:44.908Z,101720.66
2023-05-13T03:31:46.482Z,101721.91
2023-05-13T03:34:47.810Z,101732.38
2023-05-13T03:37:49.969Z,101730.34
2023-05-13T03:40:51.412Z,101729.41
2023-05-13T03:43:52.725Z,101735.25
2023-05-13T03:46:54.322Z,101740.44
2023-05-13T03:49:55.687Z,101737.00
2023-05-13T03:52:57.754Z,101747.47
2023-05-13T03:55:59.324Z,101755.06
2023-05-13T03:59:00.620Z,101744.69
2023-05-13T04:02:02.420Z,101750.53
2023-05-13T04:05:05.393Z,101739.13
2023-05-13T04:08:07.628Z,101757.81
2023-05-13T04:11:09.026Z,101746.22
2023-05-13T04:14:10.396Z,101759.16
2023-05-13T04:17:12.013Z,101768.69
2023-05-13T04:20:13.603Z,101769.44
2023-05-13T04:23:15.696Z,101770.03
2023-05-13T04:26:17.230Z,101779.41
2023-05-13T04:29:18.524Z,101780.13
2023-05-13T04:32:21.303Z,101785.69
2023-05-13T04:35:22.791Z,101786.72
2023-05-13T04:38:24.871Z,101782.22
2023-05-13T04:41:26.225Z,101793.00
2023-05-13T04:44:27.512Z,101795.25
2023-05-13T04:47:28.978Z,101782.00
2023-05-13T04:50:31.188Z,101796.94
2023-05-13T04:53:34.101Z,101794.75
2023-05-13T04:56:35.408Z,101799.47
2023-05-13T04:59:36.845Z,101803.25
2023-05-13T05:02:39.184Z,101805.19
2023-05-13T05:05:40.545Z,101793.91
2023-05-13T05:08:43.210Z,101810.59
2023-05-13T05:11:44.479Z,101813.66
2023-05-13T05:14:45.767Z,101814.16
2023-05-13T05:17:47.139Z,101815.88
2023-05-13T05:20:48.516Z,101814.84
2023-05-13T05:23:50.471Z,101818.19
2023-05-13T05:26:51.752Z,101810.06
2023-05-13T05:29:53.222Z,101814.50
2023-05-13T05:32:54.651Z,101820.72
2023-05-13T05:35:55.969Z,101821.44
2023-05-13T05:38:57.968Z,101820.00
2023-05-13T05:41:59.285Z,101824.81
2023-05-13T05:45:00.920Z,101822.72
2023-05-13T05:48:02.276Z,101837.69
2023-05-13T05:51:04.308Z,101831.16
2023-05-13T05:54:06.398Z,101827.13
2023-05-13T05:57:07.740Z,101827.78
2023-05-13T06:00:10.089Z,101828.41
2023-05-13T06:03:11.510Z,101832.47
2023-05-13T06:06:13.055Z,101831.88
2023-05-13T06:09:14.979Z,101826.91
2023-05-13T06:12:16.265Z,101828.88
2023-05-13T06:15:17.841Z,101831.47
2023-05-13T06:18:19.135Z,101824.47
2023-05-13T06:21:20.618Z,101830.88
2023-05-13T06:24:22.621Z,101821.53
2023-05-13T06:27:24.264Z,101831.63
2023-05-13T06:30:25.550Z,101829.63
2023-05-13T06:33:26.924Z,101825.09
2023-05-13T06:36:28.312Z,101823.97
2023-05-13T06:39:30.390Z,101827.41
2023-05-13T06:42:31.697Z,101827.06
2023-05-13T06:45:33.130Z,101826.13
2023-05-13T06:48:34.420Z,101823.91
2023-05-13T06:51:35.953Z,101827.97
2023-05-13T06:54:37.917Z,101826.91
2023-05-13T06:57:43.020Z,101830.72
2023-05-13T07:00:45.925Z,101828.16
2023-05-13T07:03:48.619Z,101826.59
2023-05-13T07:06:50.937Z,101821.41
2023-05-13T07:09:52.884Z,101816.88
2023-05-13T07:12:54.193Z,101817.78
2023-05-13T07:15:55.634Z,101815.56
2023-05-13T07:18:57.060Z,101810.13
2023-05-13T07:21:58.660Z,101805.19
2023-05-13T07:25:00.870Z,101808.47
2023-05-13T07:28:02.234Z,101808.22
2023-05-13T07:31:04.792Z,101816.81
2023-05-13T07:34:06.131Z,101804.72
2023-05-13T07:37:07.680Z,101794.66
2023-05-13T07:40:10.529Z,101791.53
2023-05-13T07:43:13.260Z,101796.66
2023-05-13T07:46:15.391Z,101788.22
2023-05-13T07:49:16.678Z,101783.91
2023-05-13T07:52:18.121Z,101785.72
2023-05-13T07:55:20.849Z,101783.31
2023-05-13T07:58:22.484Z,101788.44
2023-05-13T08:01:23.811Z,101779.13
2023-05-13T08:04:25.513Z,101764.84
2023-05-13T08:07:28.333Z,101768.56
2023-05-13T08:10:30.367Z,101761.16
2023-05-13T08:13:31.830Z,101780.16
2023-05-13T08:16:34.719Z,101768.84
2023-05-13T08:19:36.122Z,101766.97
2023-05-13T08:22:37.452Z,101777.38
2023-05-13T08:25:39.421Z,101785.47
2023-05-13T08:28:42.310Z,101790.72
2023-05-13T08:31:45.215Z,101778.13
2023-05-13T08:34:46.563Z,101769.97
2023-05-13T08:37:48.066Z,101778.97
2023-05-13T08:40:50.080Z,101790.34
2023-05-13T08:43:53.972Z,101782.78
2023-05-13T08:47:04.768Z,101788.72
2023-05-13T08:50:06.940Z,101778.13
2023-05-13T08:53:11.194Z,101781.53
2023-05-13T08:56:13.240Z,101790.75
2023-05-13T08:59:14.551Z,101777.44
2023-05-13T09:02:16.065Z,101769.91
2023-05-13T09:05:18.169Z,101773.13
2023-05-13T09:08:19.754Z,101776.41
2023-05-13T09:11:22.303Z,101767.06
2023-05-13T09:14:30.493Z,101784.00
2023-05-13T09:17:32.123Z,101767.75
2023-05-13T09:20:34.377Z,101774.38
2023-05-13T09:23:35.824Z,101765.59
2023-05-13T09:26:38.728Z,101771.25
2023-05-13T09:29:40.025Z,101762.88
2023-05-13T09:32:42.304Z,101767.13
2023-05-13T09:35:48.830Z,101762.19
2023-05-13T09:38:52.695Z,101770.72
2023-05-13T09:41:54.770Z,101764.47
2023-05-13T09:44:56.220Z,101771.47
2023-05-13T09:47:57.773Z,101761.38
2023-05-13T09:50:59.600Z,101758.56
2023-05-13T09:54:06.176Z,101760.03
2023-05-13T09:57:08.211Z,101753.94
2023-05-13T10:00:17.924Z,101762.22
2023-05-13T10:03:22.923Z,101756.28
2023-05-13T10:06:25.944Z,101753.88
2023-05-13T10:09:28.599Z,101749.38
2023-05-13T10:12:31.679Z,101748.22
2023-05-13T10:15:33.923Z,101747.59
2023-05-13T10:18:35.744Z,101752.84
2023-05-13T10:21:38.017Z,101746.56
2023-05-13T10:24:39.988Z,101729.19
2023-05-13T10:27:42.477Z,101741.50
2023-05-13T10:30:44.275Z,101738.94
2023-05-13T10:33:45.768Z,101781.09
2023-05-13T10:37:02.458Z,101746.94
2023-05-13T10:40:22.340Z,101741.09
2023-05-13T10:43:27.919Z,101734.97
2023-05-13T10:46:29.430Z,101731.03
2023-05-13T10:49:33.276Z,101732.75
2023-05-13T10:52:47.188Z,101741.28
2023-05-13T10:55:52.853Z,101732.47
2023-05-13T10:58:59.386Z,101732.00
2023-05-13T11:02:03.262Z,101737.00
2023-05-13T11:05:05.218Z,101726.75
2023-05-13T11:08:06.728Z,101737.63
2023-05-13T11:11:32.683Z,101733.16
2023-05-13T11:14:34.660Z,101741.03
2023-05-13T11:17:36.951Z,101730.56
2023-05-13T11:20:51.543Z,101733.19
2023-05-13T11:23:57.262Z,101736.44
2023-05-13T11:26:59.174Z,101735.03
2023-05-13T11:30:06.414Z,101724.72
2023-05-13T11:33:11.713Z,101725.28
2023-05-13T11:36:13.120Z,101729.75
2023-05-13T11:39:15.955Z,101731.03
2023-05-13T11:42:17.494Z,101728.81
2023-05-13T11:45:23.611Z,101716.00
2023-05-13T11:48:25.703Z,101703.66
2023-05-13T11:51:27.917Z,101702.25
2023-05-13T11:54:29.571Z,101701.91
2023-05-13T11:57:31.922Z,101708.56
2023-05-13T12:00:34.943Z,101710.72
2023-05-13T12:03:36.335Z,101711.69
2023-05-13T12:06:44.273Z,101714.41
2023-05-13T12:09:45.715Z,101703.91
2023-05-13T12:12:47.545Z,101703.47
2023-05-13T12:15:49.872Z,101717.84
2023-05-13T12:18:56.355Z,101711.16
2023-05-13T12:21:59.170Z,101702.22
2023-05-13T12:25:02.851Z,101693.56
2023-05-13T12:28:08.776Z,101707.22
2023-05-13T12:31:16.504Z,101708.28
2023-05-13T12:34:30.101Z,101709.59
2023-05-13T12:37:31.511Z,101711.03
2023-05-13T12:40:32.931Z,101731.59
2023-05-13T12:43:34.314Z,101695.66
2023-05-13T12:46:36.896Z,101700.53
2023-05-13T12:49:51.366Z,101687.56
2023-05-13T12:52:53.144Z,101686.19
2023-05-13T12:55:54.570Z,101697.19
2023-05-13T12:58:56.291Z,101693.66
2023-05-13T13:01:58.346Z,101668.84
2023-05-13T13:04:59.660Z,101704.06
2023-05-13T13:08:01.604Z,101704.03
2023-05-13T13:11:03.936Z,101707.03
2023-05-13T13:14:05.233Z,101697.41
2023-05-13T13:17:07.396Z,101688.25
2023-05-13T13:20:09.061Z,101694.25
2023-05-13T13:23:10.420Z,101693.72
2023-05-13T13:26:11.736Z,101693.88
2023-05-13T13:29:13.039Z,101685.63
2023-05-13T13:32:15.216Z,101691.88
2023-05-13T13:35:16.565Z,101696.00
2023-05-13T13:38:17.963Z,101691.25
2023-05-13T13:41:19.218Z,101690.03
2023-05-13T13:44:20.642Z,101698.31
2023-05-13T13:47:22.701Z,101687.84
2023-05-13T13:50:24.220Z,101687.47
2023-05-13T13:53:25.722Z,101689.81
2023-05-13T13:56:27.033Z,101672.72
2023-05-13T13:59:28.320Z,101676.28
2023-05-13T14:02:30.483Z,101661.78
2023-05-13T14:05:31.867Z,101688.00
2023-05-13T14:08:33.303Z,101668.88
2023-05-13T14:11:34.673Z,101675.13
2023-05-13T14:14:35.961Z,101662.06
2023-05-13T14:17:38.159Z,101671.97
2023-05-13T14:20:39.455Z,101655.63
2023-05-13T14:23:41.287Z,101650.91
2023-05-13T14:26:42.587Z,101660.53
2023-05-13T14:29:45.957Z,101646.03
2023-05-13T14:32:48.058Z,101648.22
2023-05-13T14:35:49.447Z,101646.53
2023-05-13T14:38:50.863Z,101637.06
2023-05-13T14:41:52.114Z,101644.91
2023-05-13T14:44:53.458Z,101642.50
2023-05-13T14:47:56.027Z,101648.19
2023-05-13T14:50:57.406Z,101644.56
2023-05-13T14:53:58.819Z,101646.25
2023-05-13T14:57:00.137Z,101640.31
2023-05-13T15:00:01.493Z,101630.72
2023-05-13T15:03:03.739Z,101640.09
2023-05-13T15:06:06.000Z,101636.97
2023-05-13T15:09:07.287Z,101642.25
2023-05-13T15:12:09.433Z,101647.56
2023-05-13T15:15:11.608Z,101634.56
2023-05-13T15:18:13.993Z,101641.63
2023-05-13T15:21:15.440Z,101640.97
2023-05-13T15:24:16.875Z,101637.66
2023-05-13T15:27:18.749Z,101634.53
2023-05-13T15:30:20.250Z,101635.38
2023-05-13T15:33:22.494Z,101638.13
2023-05-13T15:36:23.930Z,101625.75
2023-05-13T15:39:25.276Z,101630.41
2023-05-13T15:42:26.900Z,101632.00
2023-05-13T15:45:28.653Z,101621.63
2023-05-13T15:48:30.664Z,101623.44
2023-05-13T15:51:32.436Z,101621.31
2023-05-13T15:54:33.853Z,101619.31
2023-05-13T15:57:35.138Z,101618.34
2023-05-13T16:00:36.646Z,101617.34
2023-05-13T16:03:38.846Z,101609.91
2023-05-13T16:06:40.358Z,101610.09
2023-05-13T16:09:41.807Z,101621.81
2023-05-13T16:12:43.092Z,101618.00
2023-05-13T16:15:44.451Z,101626.34
2023-05-13T16:18:46.488Z,101618.94
2023-05-13T16:21:47.980Z,101627.78
2023-05-13T16:24:49.419Z,101636.44
2023-05-13T16:27:50.638Z,101642.31
2023-05-13T16:30:54.092Z,101646.25
2023-05-13T16:33:56.557Z,101662.41
2023-05-13T16:36:59.044Z,101658.06
2023-05-13T16:40:00.737Z,101654.41
2023-05-13T16:43:03.848Z,101665.44
2023-05-13T16:46:05.542Z,101656.56
2023-05-13T16:49:07.530Z,101665.78
2023-05-13T16:52:08.999Z,101669.69
2023-05-13T16:55:10.443Z,101676.22
2023-05-13T16:58:14.737Z,101684.47
2023-05-13T17:01:16.381Z,101701.84
2023-05-13T17:04:19.275Z,101705.78
2023-05-13T17:07:20.740Z,101695.44
2023-05-13T17:10:22.542Z,101698.94
2023-05-13T17:13:24.004Z,101692.00
2023-05-13T17:16:25.437Z,101694.41
2023-05-13T17:19:28.776Z,101692.19
2023-05-13T17:22:30.039Z,101686.72
2023-05-13T17:25:31.447Z,101690.22
2023-05-13T17:28:33.161Z,101688.31
2023-05-13T17:31:34.534Z,101696.69
2023-05-13T17:34:36.484Z,101693.69
2023-05-13T17:37:37.852Z,101698.66
2023-05-13T17:40:39.134Z,101685.84
2023-05-13T17:43:40.433Z,101687.13
2023-05-13T17:46:41.818Z,101691.97
2023-05-13T17:49:43.765Z,101692.41
2023-05-13T17:52:45.312Z,101694.31
2023-05-13T17:55:47.721Z,101704.41
2023-05-13T17:58:48.996Z,101701.91
2023-05-13T18:01:50.491Z,101702.31
2023-05-13T18:04:52.584Z,101700.97
2023-05-13T18:07:53.937Z,101707.00
2023-05-13T18:10:55.378Z,101711.00
2023-05-13T18:13:56.690Z,101709.53
2023-05-13T18:16:58.080Z,101713.56
2023-05-13T18:19:59.978Z,101721.16
2023-05-13T18:23:01.310Z,101717.84
2023-05-13T18:26:02.992Z,101723.50
2023-05-13T18:29:04.417Z,101722.69
2023-05-13T18:32:06.001Z,101718.03
2023-05-13T18:35:08.628Z,101717.56
2023-05-13T18:38:09.939Z,101725.81
2023-05-13T18:41:11.260Z,101726.66
2023-05-13T18:44:12.688Z,101726.88
2023-05-13T18:47:14.109Z,101724.47
2023-05-13T18:50:16.011Z,101726.25
2023-05-13T18:53:17.397Z,101725.97
2023-05-13T18:56:18.790Z,101731.50
2023-05-13T18:59:20.238Z,101735.50
2023-05-13T19:02:21.680Z,101733.56
2023-05-13T19:05:23.851Z,101743.94
2023-05-13T19:08:25.269Z,101739.28
2023-05-13T19:11:26.629Z,101744.66
2023-05-13T19:14:28.091Z,101744.97
2023-05-13T19:17:30.343Z,101743.94
2023-05-13T19:20:32.378Z,101743.44
2023-05-13T19:23:33.772Z,101749.25
2023-05-13T19:26:35.273Z,101747.66
2023-05-13T19:29:36.758Z,101751.84
2023-05-13T19:32:38.071Z,101751.31
2023-05-13T19:35:40.465Z,101754.66
2023-05-13T19:38:41.888Z,101765.19
2023-05-13T19:41:43.164Z,101759.66
2023-05-13T19:44:45.531Z,101754.31
2023-05-13T19:47:47.168Z,101762.66
2023-05-13T19:50:52.625Z,101760.97
2023-05-13T19:53:54.038Z,101755.38
2023-05-13T19:56:55.448Z,101761.19
2023-05-13T19:59:58.148Z,101756.75
2023-05-13T20:02:59.904Z,101754.50
2023-05-13T20:06:02.378Z,101761.41
2023-05-13T20:09:04.038Z,101753.28
2023-05-13T20:12:05.475Z,101758.31
2023-05-13T20:15:07.392Z,101749.41
2023-05-13T20:18:08.761Z,101753.75
2023-05-13T20:21:10.992Z,101753.41
2023-05-13T20:24:12.680Z,101745.06
2023-05-13T20:27:15.230Z,101758.50
2023-05-13T20:30:16.719Z,101750.69
2023-05-13T20:33:17.988Z,101755.09
2023-05-13T20:36:20.058Z,101755.03
2023-05-13T20:39:21.527Z,101753.03
2023-05-13T20:42:23.426Z,101746.34
2023-05-13T20:45:25.095Z,101747.97
2023-05-13T20:48:27.078Z,101752.72
2023-05-13T20:51:29.157Z,101745.44
2023-05-13T20:54:30.589Z,101741.69
2023-05-13T20:57:31.877Z,101744.53
2023-05-13T21:00:33.298Z,101738.19
2023-05-13T21:03:34.713Z,101743.75
2023-05-13T21:06:36.889Z,101744.59
2023-05-13T21:09:38.814Z,101750.56
2023-05-13T21:12:40.455Z,101739.50
2023-05-13T21:15:41.922Z,101744.34
2023-05-13T21:18:43.279Z,101739.47
2023-05-13T21:21:45.378Z,101743.63
2023-05-13T21:24:46.821Z,101734.56
2023-05-13T21:27:48.609Z,101745.78
2023-05-13T21:30:50.010Z,101741.09
2023-05-13T21:33:51.432Z,101739.38
2023-05-13T21:36:53.422Z,101738.09
2023-05-13T21:39:54.852Z,101734.25
2023-05-13T21:42:56.148Z,101740.13
2023-05-13T21:45:57.602Z,101740.31
2023-05-13T21:48:59.651Z,101743.75
2023-05-13T21:52:01.828Z,101733.41
2023-05-13T21:55:03.493Z,101745.78
2023-05-13T21:58:04.807Z,101735.09
2023-05-13T22:01:06.174Z,101741.25
2023-05-13T22:04:07.996Z,101735.31
2023-05-13T22:07:10.107Z,101734.81
2023-05-13T22:10:11.659Z,101737.25
2023-05-13T22:13:13.086Z,101735.44
2023-05-13T22:16:14.681Z,101737.16
2023-05-13T22:19:16.176Z,101725.75
2023-05-13T22:22:18.431Z,101725.75
2023-05-13T22:25:20.382Z,101731.59
2023-05-13T22:28:21.797Z,101733.28
2023-05-13T22:31:23.339Z,101732.81
2023-05-13T22:34:25.484Z,101722.09
2023-05-13T22:37:27.556Z,101729.63
2023-05-13T22:40:29.045Z,101729.94
2023-05-13T22:43:30.674Z,101732.13
2023-05-13T22:46:32.321Z,101734.38
2023-05-13T22:49:33.829Z,101724.34
2023-05-13T22:52:35.924Z,101720.19
2023-05-13T22:55:37.349Z,101720.94
2023-05-13T22:58:38.759Z,101727.41
2023-05-13T23:01:40.201Z,101713.00
2023-05-13T23:04:41.485Z,101724.25
2023-05-13T23:07:43.570Z,101720.81
2023-05-13T23:10:44.829Z,101718.50
2023-05-13T23:13:46.283Z,101724.75
2023-05-13T23:16:47.692Z,101726.34
2023-05-13T23:19:48.998Z,101715.66
2023-05-13T23:22:51.125Z,101723.59
2023-05-13T23:25:52.374Z,101717.75
2023-05-13T23:28:53.791Z,101721.22
2023-05-13T23:31:55.503Z,101721.16
2023-05-13T23:34:56.969Z,101714.19
2023-05-13T23:37:59.760Z,101715.03
2023-05-13T23:41:01.052Z,101708.38
2023-05-13T23:44:02.545Z,101706.13
2023-05-13T23:47:04.369Z,101702.66
2023-05-13T23:50:07.021Z,101702.75
2023-05-13T23:53:09.187Z,101713.56
2023-05-13T23:56:10.459Z,101707.97
2023-05-13T23:59:11.941Z,101702.47
